Rechercher aéroport 
image banner adimage banner ad
image banner ad

LROD - Oradea

Situé à Oradea, Romania

ICAO - LROD, IATA - OMR

Données fournies par Airmate  

Information générale

Coordonnées: N47°1'31" E21°54'9"
Élévation : 468 feet MSL.
Variation magnétique : 4° East
Voir autres Aéroports à Bihor

Données opérationnelles

Accessible au public
Heure actuelle UTC:
Heure actuelle locale:
Météo
METAR: LROD 010030Z AUTO 08004KT 8000 NCD 03/02 Q1024
TAF: TAF LROD 311700Z 3118/0103 03006KT CAVOK BECMG 3121/3123 5000 BR BECMG 3123/0101 1500 BR BECMG 0101/0103 0600 FG BKN002
Voir NOTAMs / SUP AIP / TFR affectant cet aéroport [VIEW]
Fréquences de communication: [VIEW]

Pistes:

Identifiant RWYQFULongueur (ft)Largeur (ft)SurfaceLDA (ft)
0111°6890148CONC6398
19191°6890148CONC6398

Coordonnées de l'aéroport

Adresse: Oradea Romania

Vue satellite de LROD